Time;durP1;ratioP1;P1;durP2;ratioP2;P2;SDS_P1;SDS_P2;PMS_P1;PMS_P2;Temp;Humidity;BMP_temperature;BMP_pressure;BME280_temperature;BME280_humidity;BME280_pressure;Samples;Min_cycle;Max_cycle;Signal;HPM_P1;HPM_P2
2021/06/24 00:01:02;;;;;;;;;;;15.90;99.90;;;15.05;100.00;95899.50;10455916;28;1923;-77
2021/06/24 00:06:05;;;;;;;;;;;15.90;99.90;;;14.91;100.00;95902.19;10458148;28;2042;-78
2021/06/24 00:11:08;;;;;;;;;;;15.90;99.90;;;14.95;100.00;95902.38;10456258;28;2183;-77
2021/06/24 00:16:10;;;;;;;;;;;15.80;99.90;;;14.97;100.00;95887.44;10460621;28;2119;-77
2021/06/24 00:21:13;;;;;;;;;;;15.90;99.90;;;14.81;100.00;95884.19;10466639;28;2091;-79
2021/06/24 00:26:16;;;;;;;;;;;15.80;99.90;;;14.74;100.00;95874.88;10457453;28;2179;-78
2021/06/24 00:31:19;;;;;;;;;;;15.70;99.90;;;14.58;100.00;95875.13;10468763;28;2102;-77
2021/06/24 00:36:21;;;;;;;;;;;15.60;99.90;;;14.41;100.00;95885.66;10453446;28;2207;-77
2021/06/24 00:41:24;;;;;;;;;;;15.50;99.90;;;14.53;100.00;95894.16;10458224;28;2077;-79
2021/06/24 00:46:27;;;;;;;;;;;15.50;99.90;;;14.69;100.00;95894.69;10444584;28;2055;-80
2021/06/24 00:51:29;;;;;;;;;;;15.50;99.90;;;14.81;100.00;95892.31;10440075;28;2208;-78
2021/06/24 00:56:32;;;;;;;;;;;15.60;99.90;;;14.69;100.00;95902.00;10434907;28;2079;-77
2021/06/24 01:01:35;;;;;;;;;;;15.70;99.90;;;14.88;100.00;95906.25;10455207;28;2080;-77
2021/06/24 01:06:39;;;;;;;;;;;15.80;99.90;;;14.81;100.00;95902.34;10432191;28;2323;-78
2021/06/24 01:11:42;;;;;;;;;;;15.80;99.90;;;14.83;100.00;95900.16;10441725;28;2139;-79
2021/06/24 01:16:45;;;;;;;;;;;15.80;99.90;;;14.84;100.00;95907.97;10465023;28;2099;-77
2021/06/24 01:21:48;;;;;;;;;;;15.80;99.90;;;14.80;100.00;95895.31;10468373;28;2052;-77
2021/06/24 01:26:50;;;;;;;;;;;15.80;99.90;;;14.94;100.00;95909.69;10451868;28;2092;-77
2021/06/24 01:31:53;;;;;;;;;;;15.80;99.90;;;15.12;100.00;95902.59;10453319;28;2081;-77
2021/06/24 01:36:56;;;;;;;;;;;15.90;99.90;;;14.83;100.00;95900.16;10446898;28;2256;-78
2021/06/24 01:41:59;;;;;;;;;;;15.80;99.90;;;14.94;100.00;95898.84;10456517;28;2162;-77
2021/06/24 01:47:01;;;;;;;;;;;15.70;99.90;;;14.95;100.00;95896.94;10456800;28;2007;-78
2021/06/24 01:52:04;;;;;;;;;;;15.80;99.90;;;14.75;100.00;95890.00;10461024;28;2081;-78
2021/06/24 01:57:07;;;;;;;;;;;15.70;99.90;;;14.72;100.00;95877.88;10461368;28;2253;-77
2021/06/24 02:02:09;;;;;;;;;;;15.70;99.90;;;14.75;100.00;95871.84;10443790;28;2189;-78
2021/06/24 02:07:12;;;;;;;;;;;15.70;99.90;;;14.48;100.00;95872.59;10452992;28;2110;-78
2021/06/24 02:12:16;;;;;;;;;;;15.60;99.90;;;14.42;100.00;95867.53;10436922;28;2357;-78
2021/06/24 02:17:19;;;;;;;;;;;15.50;99.90;;;14.40;100.00;95878.66;10456270;28;2063;-78
2021/06/24 02:22:21;;;;;;;;;;;15.40;99.90;;;14.27;100.00;95876.69;10453689;28;2257;-78
2021/06/24 02:27:24;;;;;;;;;;;15.40;99.90;;;14.51;100.00;95877.44;10445426;28;2040;-77
2021/06/24 02:32:27;;;;;;;;;;;15.30;99.90;;;14.18;100.00;95870.34;10432837;28;2143;-78
2021/06/24 02:37:29;;;;;;;;;;;15.30;99.90;;;13.93;100.00;95863.41;10455571;28;2127;-77
2021/06/24 02:42:32;;;;;;;;;;;15.10;99.90;;;14.05;100.00;95866.47;10462852;28;2068;-78
2021/06/24 02:47:35;;;;;;;;;;;15.10;99.90;;;13.99;100.00;95860.34;10457512;28;2077;-78
2021/06/24 02:52:38;;;;;;;;;;;15.10;99.90;;;13.85;100.00;95851.34;10456965;28;2266;-78
2021/06/24 02:57:40;;;;;;;;;;;15.00;99.90;;;13.65;100.00;95851.66;10445155;28;2107;-77
2021/06/24 03:02:43;;;;;;;;;;;14.90;99.90;;;13.63;100.00;95843.03;10460892;28;2069;-79
2021/06/24 03:07:46;;;;;;;;;;;14.80;99.90;;;13.66;100.00;95842.44;10465781;28;2190;-79
2021/06/24 03:12:48;;;;;;;;;;;14.70;99.90;;;13.61;100.00;95835.22;10459713;28;2175;-78
2021/06/24 03:17:51;;;;;;;;;;;14.70;99.90;;;13.58;100.00;95835.00;10456362;28;2034;-76
2021/06/24 03:22:57;;;;;;;;;;;14.60;99.90;;;13.63;100.00;95838.44;10454857;28;2088;-78
2021/06/24 03:28:00;;;;;;;;;;;14.60;99.90;;;13.98;100.00;95825.50;10458848;28;2096;-77
2021/06/24 03:33:02;;;;;;;;;;;14.80;99.90;;;14.18;100.00;95821.66;10460591;28;2041;-78
2021/06/24 03:38:05;;;;;;;;;;;14.90;99.90;;;14.25;100.00;95822.09;10437652;28;2021;-77
2021/06/24 03:43:08;;;;;;;;;;;15.10;99.90;;;14.30;100.00;95822.00;10452258;28;2118;-77
2021/06/24 03:48:10;;;;;;;;;;;15.30;99.90;;;14.42;100.00;95816.16;10474649;28;2194;-78
2021/06/24 03:53:13;;;;;;;;;;;15.30;99.90;;;14.73;100.00;95816.44;10483442;28;2118;-77
2021/06/24 03:58:16;;;;;;;;;;;15.50;99.90;;;15.40;100.00;95820.28;10457365;28;2234;-76
2021/06/24 04:03:19;;;;;;;;;;;15.80;99.90;;;15.70;99.27;95817.22;10458903;28;2104;-78
2021/06/24 04:08:21;;;;;;;;;;;16.20;99.90;;;16.14;95.16;95820.00;10435752;28;2071;-77
2021/06/24 04:13:36;;;;;;;;;;;16.70;99.90;;;16.54;92.42;95812.00;10461146;28;2092;-75
2021/06/24 04:18:59;;;;;;;;;;;17.00;99.90;;;16.71;90.94;95811.28;10439196;28;2128;-77
2021/06/24 04:24:22;;;;;;;;;;;17.20;99.90;;;16.83;90.22;95818.88;10443485;28;2255;-77
2021/06/24 04:29:25;;;;;;;;;;;17.50;99.90;;;17.11;88.49;95828.41;10452150;28;2234;-78
2021/06/24 04:34:27;;;;;;;;;;;17.70;99.90;;;17.15;88.14;95823.94;10436961;28;2175;-78
2021/06/24 04:39:32;;;;;;;;;;;17.80;99.90;;;16.95;88.01;95816.38;10426521;28;2088;-77
2021/06/24 04:44:49;;;;;;;;;;;17.70;99.90;;;17.44;86.98;95814.47;10452311;28;2241;-78
2021/06/24 04:49:51;;;;;;;;;;;17.90;99.90;;;17.56;85.21;95814.66;10437082;28;2328;-77
2021/06/24 04:54:54;;;;;;;;;;;18.10;99.90;;;17.28;87.72;95812.16;10439566;28;2171;-77
2021/06/24 04:59:57;;;;;;;;;;;18.00;99.90;;;17.48;83.77;95801.81;10451916;28;2182;-77
2021/06/24 05:05:01;;;;;;;;;;;18.10;99.90;;;17.45;85.66;95802.47;10447173;28;2030;-78
2021/06/24 05:10:04;;;;;;;;;;;18.10;99.90;;;17.34;85.45;95801.16;10466448;28;2080;-77
2021/06/24 05:15:06;;;;;;;;;;;18.10;99.90;;;17.24;86.80;95796.81;10447836;28;2095;-79
2021/06/24 05:20:09;;;;;;;;;;;18.10;99.90;;;17.12;86.24;95811.00;10451349;28;2142;-77
2021/06/24 05:25:12;;;;;;;;;;;18.00;99.90;;;17.18;84.06;95807.03;10450569;28;2163;-77
2021/06/24 05:30:14;;;;;;;;;;;18.00;99.90;;;17.33;86.07;95802.28;10443802;28;2115;-78
2021/06/24 05:35:17;;;;;;;;;;;18.00;99.90;;;17.78;84.36;95792.78;10446926;28;2260;-78
2021/06/24 05:40:21;;;;;;;;;;;18.20;99.90;;;18.23;81.63;95791.66;10444298;28;2177;-75
2021/06/24 05:45:28;;;;;;;;;;;18.60;99.90;;;18.03;78.92;95798.56;10449617;28;2024;-78
2021/06/24 05:50:31;;;;;;;;;;;18.90;99.90;;;18.35;79.64;95802.72;10444978;28;2161;-76
2021/06/24 05:55:49;;;;;;;;;;;19.10;99.90;;;19.10;76.36;95789.56;10443590;28;2210;-78
2021/06/24 06:00:52;;;;;;;;;;;19.40;99.90;;;19.60;74.30;95797.03;10441371;28;2157;-79
2021/06/24 06:05:55;;;;;;;;;;;20.10;99.90;;;19.68;72.80;95802.41;10434006;28;2100;-79
2021/06/24 06:10:58;;;;;;;;;;;20.40;99.90;;;19.54;71.38;95795.59;10450261;28;1940;-78
2021/06/24 06:16:01;;;;;;;;;;;20.50;99.90;;;19.39;72.70;95800.44;10442909;28;2078;-78
2021/06/24 06:21:04;;;;;;;;;;;20.00;99.90;;;18.35;73.32;95798.06;10436495;28;2013;-77
2021/06/24 06:26:07;;;;;;;;;;;19.80;99.90;;;18.69;75.27;95796.41;10424077;28;2046;-78
2021/06/24 06:31:10;;;;;;;;;;;19.40;99.90;;;17.96;75.98;95792.81;10449645;28;1914;-79
2021/06/24 06:36:13;;;;;;;;;;;19.20;99.90;;;18.80;78.94;95784.06;10432558;28;1983;-75
2021/06/24 06:41:16;;;;;;;;;;;19.20;99.90;;;19.65;74.39;95785.91;10426901;28;1876;-78
2021/06/24 06:46:18;;;;;;;;;;;19.70;99.90;;;19.23;73.65;95780.34;10450471;28;2119;-77
2021/06/24 06:51:23;;;;;;;;;;;20.30;99.90;;;19.53;73.52;95778.44;10440471;28;2006;-78
2021/06/24 06:56:27;;;;;;;;;;;20.40;99.90;;;20.40;69.72;95786.72;10432781;28;2046;-78
2021/06/24 07:01:30;;;;;;;;;;;20.60;99.90;;;19.36;70.44;95792.16;10451394;28;1915;-78
2021/06/24 07:06:33;;;;;;;;;;;20.70;99.90;;;18.29;75.31;95796.63;10452765;28;2096;-77
2021/06/24 07:11:36;;;;;;;;;;;19.70;99.90;;;18.69;76.78;95785.53;10445597;28;1977;-78
2021/06/24 07:16:38;;;;;;;;;;;19.30;99.90;;;20.03;70.38;95780.31;10438336;28;2081;-79
2021/06/24 07:21:41;;;;;;;;;;;20.00;99.90;;;19.17;70.90;95779.75;10451379;28;2085;-77
2021/06/24 07:26:44;;;;;;;;;;;20.40;99.90;;;19.68;69.62;95783.31;10443198;28;2166;-78
2021/06/24 07:31:46;;;;;;;;;;;20.00;99.90;;;19.39;68.12;95797.72;10446400;28;2085;-78
2021/06/24 07:36:50;;;;;;;;;;;20.70;99.90;;;19.18;68.38;95789.50;10439544;28;2210;-78
2021/06/24 07:41:52;;;;;;;;;;;20.60;99.90;;;18.67;69.99;95787.78;10444135;28;2130;-78
2021/06/24 07:46:55;;;;;;;;;;;20.30;99.90;;;20.87;65.03;95800.13;10442813;28;2306;-78
2021/06/24 07:51:58;;;;;;;;;;;21.00;99.90;;;21.30;62.82;95787.88;10442318;28;1910;-77
2021/06/24 07:57:01;;;;;;;;;;;21.50;99.90;;;20.92;64.59;95786.22;10458063;28;2245;-79
2021/06/24 08:02:05;;;;;;;;;;;21.40;99.90;;;21.82;61.27;95781.66;10470586;28;2148;-77
2021/06/24 08:07:09;;;;;;;;;;;21.80;99.90;;;21.33;62.60;95776.25;10472840;28;2072;-77
2021/06/24 08:12:12;;;;;;;;;;;22.10;99.90;;;20.21;64.34;95781.75;10480977;28;2103;-78
2021/06/24 08:17:15;;;;;;;;;;;21.40;99.90;;;20.69;64.24;95776.84;10465990;28;2279;-79
2021/06/24 08:22:18;;;;;;;;;;;21.30;99.90;;;20.32;63.55;95779.44;10443930;28;1999;-79
2021/06/24 08:27:20;;;;;;;;;;;21.10;99.90;;;21.41;60.32;95778.06;10455622;28;2131;-79
2021/06/24 08:32:23;;;;;;;;;;;21.50;99.90;;;20.81;59.49;95771.41;10448635;28;2093;-78
2021/06/24 08:37:26;;;;;;;;;;;21.90;99.90;;;21.82;57.66;95771.53;10456498;28;2115;-78
2021/06/24 08:42:29;;;;;;;;;;;21.90;99.90;;;21.16;59.85;95777.25;10459087;28;1904;-77
2021/06/24 08:47:32;;;;;;;;;;;22.10;99.90;;;21.39;61.15;95769.41;10445772;28;2064;-78
2021/06/24 08:52:35;;;;;;;;;;;22.50;99.90;;;21.09;61.97;95770.75;10439261;28;1891;-75
2021/06/24 08:57:37;;;;;;;;;;;22.10;99.90;;;20.15;64.42;95776.84;10443092;28;2068;-77
2021/06/24 09:02:42;;;;;;;;;;;21.50;99.90;;;21.12;62.30;95778.25;10460361;28;1657;-78
2021/06/24 09:07:45;;;;;;;;;;;21.50;99.90;;;22.36;58.55;95773.09;10456621;28;2130;-78
2021/06/24 09:12:48;;;;;;;;;;;22.40;99.90;;;22.20;55.79;95764.81;10437591;28;1918;-78
2021/06/24 09:17:51;;;;;;;;;;;23.10;99.90;;;21.23;60.02;95765.75;10455993;28;2080;-78
2021/06/24 09:22:53;;;;;;;;;;;22.60;99.90;;;21.43;60.78;95767.56;10435744;28;1836;-77
2021/06/24 09:27:56;;;;;;;;;;;22.40;99.90;;;21.50;57.89;95765.09;10419241;28;2061;-76
2021/06/24 09:32:59;;;;;;;;;;;22.70;99.90;;;22.18;57.91;95760.84;10440830;28;2406;-77
2021/06/24 09:38:02;;;;;;;;;;;22.60;99.90;;;22.20;56.42;95758.53;10447209;28;2029;-77
2021/06/24 09:43:05;;;;;;;;;;;22.90;99.90;;;22.93;54.43;95758.19;10426324;28;2187;-77
2021/06/24 09:48:07;;;;;;;;;;;23.40;99.90;;;23.10;54.97;95762.53;10472503;28;2069;-77
2021/06/24 09:53:10;;;;;;;;;;;24.00;99.90;;;22.28;57.28;95757.63;10444163;28;2146;-76
2021/06/24 09:58:13;;;;;;;;;;;23.50;99.90;;;22.46;56.42;95747.94;10442556;28;2170;-76
2021/06/24 10:03:16;;;;;;;;;;;23.30;99.90;;;22.45;55.91;95745.53;10453064;28;2102;-77
2021/06/24 10:08:18;;;;;;;;;;;23.40;99.90;;;22.44;55.99;95747.47;10445874;28;2197;-77
2021/06/24 10:13:24;;;;;;;;;;;23.60;99.90;;;23.69;53.55;95751.41;10454568;28;2108;-75
2021/06/24 10:18:26;;;;;;;;;;;23.90;99.90;;;22.47;55.82;95757.75;10472317;28;2127;-77
2021/06/24 10:23:29;;;;;;;;;;;23.40;99.90;;;22.65;56.14;95756.28;10465553;28;2066;-78
2021/06/24 10:28:32;;;;;;;;;;;23.40;99.90;;;23.39;53.22;95775.75;10470807;28;2159;-76
2021/06/24 10:33:34;;;;;;;;;;;23.80;99.90;;;24.34;51.36;95769.25;10445153;28;2042;-77
2021/06/24 10:38:37;;;;;;;;;;;24.40;99.90;;;24.87;49.11;95774.97;10454405;28;2205;-78
2021/06/24 10:43:40;;;;;;;;;;;25.60;99.90;;;26.07;45.83;95775.31;10441553;28;2081;-79
2021/06/24 10:48:43;;;;;;;;;;;27.00;99.90;;;26.73;43.30;95770.25;10466508;28;2276;-78
2021/06/24 10:53:49;;;;;;;;;;;28.10;99.90;;;25.67;46.20;95765.69;10454877;28;2156;-76
2021/06/24 10:58:52;;;;;;;;;;;27.80;99.90;;;24.63;48.73;95754.13;10454861;28;2256;-76
2021/06/24 11:03:55;;;;;;;;;;;26.50;99.90;;;25.60;47.12;95768.34;10437555;28;2038;-76
2021/06/24 11:09:01;;;;;;;;;;;27.30;99.90;;;24.01;50.96;95787.00;10445805;28;2086;-78
2021/06/24 11:14:03;;;;;;;;;;;25.80;99.90;;;23.10;53.55;95800.91;10464160;28;2060;-77
2021/06/24 11:19:06;;;;;;;;;;;24.90;99.90;;;21.99;58.67;95797.03;10453658;28;2056;-75
2021/06/24 11:24:09;;;;;;;;;;;23.50;99.90;;;21.81;59.56;95799.22;10452141;28;2052;-79
2021/06/24 11:29:16;;;;;;;;;;;22.90;99.90;;;22.28;58.37;95799.47;10458541;28;2306;-76
2021/06/24 11:34:23;;;;;;;;;;;22.80;99.90;;;22.47;55.44;95770.66;10451449;28;2074;-76
2021/06/24 11:39:26;;;;;;;;;;;23.30;99.90;;;22.51;54.97;95775.06;10452375;28;2049;-75
2021/06/24 11:44:29;;;;;;;;;;;23.50;99.90;;;22.64;55.69;95773.84;10450125;28;2025;-75
2021/06/24 12:00:22;;;;;;;;;;;23.50;99.90;;;22.38;55.27;95765.31;10467557;28;2052;-80
2021/06/24 12:00:33;;;;;;;;;;;24.00;99.90;;;24.02;51.47;95761.13;10473937;28;2050;-80
2021/06/24 12:05:37;;;;;;;;;;;24.30;99.90;;;23.38;52.81;95771.44;10449972;28;2070;-79
2021/06/24 12:10:39;;;;;;;;;;;24.20;99.90;;;23.62;52.72;95775.94;10448314;28;2054;-79
2021/06/24 12:15:42;;;;;;;;;;;24.30;99.90;;;23.91;52.08;95751.84;10438792;28;2091;-79
2021/06/24 12:20:45;;;;;;;;;;;24.50;99.90;;;23.88;53.03;95747.09;10461456;28;2357;-78
2021/06/24 12:25:55;;;;;;;;;;;24.60;99.90;;;23.93;53.64;95777.03;10452769;28;2089;-78
2021/06/24 12:30:57;;;;;;;;;;;24.70;99.90;;;23.69;53.40;95773.38;10446798;28;2136;-78
2021/06/24 12:36:00;;;;;;;;;;;24.60;99.90;;;24.31;50.90;95765.25;10456448;28;2133;-79
2021/06/24 12:41:03;;;;;;;;;;;24.80;99.90;;;24.58;51.15;95763.47;10465889;28;2088;-79
2021/06/24 12:46:06;;;;;;;;;;;25.10;99.90;;;23.83;51.54;95769.34;10471677;28;2037;-79
2021/06/24 12:51:08;;;;;;;;;;;25.00;99.90;;;24.53;50.28;95766.50;10465418;28;2091;-80
2021/06/24 12:56:12;;;;;;;;;;;25.00;99.90;;;24.50;49.89;95759.00;10471510;28;2052;-80
2021/06/24 13:01:16;;;;;;;;;;;25.30;99.90;;;23.95;51.67;95748.03;10472816;28;2014;-79
2021/06/24 13:06:19;;;;;;;;;;;24.80;99.90;;;23.84;51.98;95749.75;10451144;28;2205;-79
2021/06/24 13:11:22;;;;;;;;;;;24.70;99.90;;;23.98;51.40;95747.34;10475578;28;2171;-79
2021/06/24 13:16:24;;;;;;;;;;;24.60;99.90;;;23.97;48.92;95747.69;10473494;28;1978;-79
2021/06/24 13:21:27;;;;;;;;;;;25.10;99.90;;;23.82;50.95;95748.53;10469795;28;1777;-79
2021/06/24 13:26:30;;;;;;;;;;;24.70;99.90;;;24.11;49.35;95736.19;10476775;28;2000;-80
2021/06/24 13:31:33;;;;;;;;;;;24.70;99.90;;;24.72;48.53;95730.72;10470342;28;2167;-78
2021/06/24 13:36:36;;;;;;;;;;;25.20;99.90;;;24.74;47.83;95733.09;10468257;28;1998;-79
2021/06/24 13:41:39;;;;;;;;;;;25.70;99.90;;;24.42;47.98;95738.00;10464275;28;2192;-79
2021/06/24 13:46:41;;;;;;;;;;;25.40;99.90;;;24.16;46.45;95736.69;10452885;28;1771;-79
2021/06/24 13:51:48;;;;;;;;;;;25.10;99.90;;;24.85;46.55;95728.59;10447994;28;2013;-77
2021/06/24 13:56:51;;;;;;;;;;;25.50;99.90;;;24.08;48.15;95707.50;10472163;28;2061;-77
2021/06/24 14:01:54;;;;;;;;;;;25.30;99.90;;;23.24;49.10;95708.03;10477821;28;2193;-79
2021/06/24 14:06:57;;;;;;;;;;;24.40;99.90;;;23.73;48.21;95691.13;10466841;28;1897;-77
2021/06/24 14:12:00;;;;;;;;;;;24.40;99.90;;;22.78;49.30;95690.44;10460290;28;2260;-76
2021/06/24 14:17:18;;;;;;;;;;;23.90;99.90;;;22.83;49.68;95688.22;10456152;28;2092;-79
2021/06/24 14:22:27;;;;;;;;;;;23.70;99.90;;;22.51;51.52;95681.94;10464492;28;1918;-78
2021/06/24 14:27:30;;;;;;;;;;;23.70;99.90;;;22.53;51.26;95679.66;10455480;28;2084;-76
2021/06/24 14:32:32;;;;;;;;;;;23.60;99.90;;;22.67;50.74;95679.22;10455826;28;2135;-80
2021/06/24 14:37:35;;;;;;;;;;;23.50;99.90;;;22.67;52.20;95669.03;10453373;28;2062;-79
2021/06/24 14:42:38;;;;;;;;;;;23.40;99.90;;;22.46;52.83;95652.09;10467321;28;2002;-79
2021/06/24 14:47:41;;;;;;;;;;;23.40;99.90;;;22.29;53.30;95627.78;10458594;28;1861;-79
2021/06/24 14:52:43;;;;;;;;;;;23.30;99.90;;;21.89;54.27;95663.44;10461110;28;2022;-79
2021/06/24 14:57:46;;;;;;;;;;;23.00;99.90;;;21.92;54.26;95624.41;10458669;28;1849;-80
2021/06/24 15:02:49;;;;;;;;;;;22.90;99.90;;;21.61;55.58;95633.31;10462330;28;2066;-80
2021/06/24 15:07:52;;;;;;;;;;;22.70;99.90;;;21.67;55.42;95667.47;10469233;28;2072;-80
2021/06/24 15:12:55;;;;;;;;;;;22.60;99.90;;;21.63;55.90;95674.78;10470187;28;1899;-80
2021/06/24 15:17:58;;;;;;;;;;;22.50;99.90;;;21.75;56.08;95699.38;10465353;28;2125;-80
2021/06/24 15:23:00;;;;;;;;;;;22.60;99.90;;;21.85;55.89;95698.88;10470454;28;1980;-80
2021/06/24 15:28:03;;;;;;;;;;;22.70;99.90;;;21.54;56.37;95703.06;10468561;28;1932;-80
2021/06/24 15:33:06;;;;;;;;;;;22.60;99.90;;;21.58;57.20;95673.09;10460383;28;1920;-80
2021/06/24 15:38:10;;;;;;;;;;;22.50;99.90;;;21.52;58.87;95680.75;10460791;28;2034;-79
2021/06/24 15:43:13;;;;;;;;;;;22.40;99.90;;;21.51;60.18;95695.56;10468131;28;1803;-82
2021/06/24 15:48:16;;;;;;;;;;;22.40;99.90;;;21.34;60.63;95695.03;10435298;28;2034;-83
2021/06/24 15:53:18;;;;;;;;;;;22.40;99.90;;;21.07;61.55;95663.72;10458873;28;2688;-81
2021/06/24 15:58:21;;;;;;;;;;;22.20;99.90;;;21.00;64.12;95669.75;10435388;28;2064;-80
2021/06/24 16:03:35;;;;;;;;;;;22.00;99.90;;;20.84;63.87;95644.25;10450660;28;2350;-82
2021/06/24 16:08:38;;;;;;;;;;;21.90;99.90;;;20.72;65.65;95675.88;10439769;28;2070;-83
2021/06/24 16:13:42;;;;;;;;;;;21.80;99.90;;;20.59;65.56;95660.63;10466155;28;2089;-78
2021/06/24 16:18:44;;;;;;;;;;;21.60;99.90;;;20.43;66.41;95671.41;10438197;28;2053;-80
2021/06/24 16:23:47;;;;;;;;;;;21.50;99.90;;;20.22;65.98;95678.84;10466197;28;2048;-82
2021/06/24 16:28:50;;;;;;;;;;;21.30;99.90;;;20.01;67.14;95667.19;10473256;28;2086;-81
2021/06/24 16:33:53;;;;;;;;;;;21.10;99.90;;;20.05;68.23;95687.25;10463213;28;2146;-81
2021/06/24 16:39:16;;;;;;;;;;;21.00;99.90;;;19.91;68.46;95699.25;10467062;28;2000;-81
2021/06/24 16:44:18;;;;;;;;;;;20.90;99.90;;;19.74;69.58;95685.75;10462476;28;2125;-82
2021/06/24 16:49:21;;;;;;;;;;;20.80;99.90;;;19.30;72.42;95671.63;10487717;28;2193;-80
2021/06/24 16:54:24;;;;;;;;;;;20.50;99.90;;;19.00;78.19;95675.50;10480602;28;2162;-83
2021/06/24 16:59:27;;;;;;;;;;;20.20;99.90;;;18.68;82.18;95666.06;10475695;28;2212;-83
2021/06/24 17:04:30;;;;;;;;;;;19.90;99.90;;;18.36;87.40;95681.84;10452955;28;2090;-79
2021/06/24 17:09:33;;;;;;;;;;;19.60;99.90;;;18.23;87.93;95694.53;10468783;28;2182;-82
2021/06/24 17:14:35;;;;;;;;;;;19.40;99.90;;;18.13;90.03;95688.63;10478063;28;2101;-81
2021/06/24 17:19:40;;;;;;;;;;;19.30;99.90;;;18.14;91.53;95696.47;10454978;28;2169;-81
2021/06/24 17:24:43;;;;;;;;;;;19.20;99.90;;;18.20;92.26;95727.84;10471238;28;1585;-82
2021/06/24 17:29:46;;;;;;;;;;;19.20;99.90;;;18.12;92.77;95736.78;10470763;28;2035;-79
2021/06/24 17:34:49;;;;;;;;;;;19.20;99.90;;;17.78;95.40;95715.88;10476692;28;2072;-79
2021/06/24 17:39:51;;;;;;;;;;;20.20;99.90;;;17.29;96.37;95704.31;10470191;28;2123;-79
2021/06/24 17:44:54;;;;;;;;;;;18.60;99.90;;;17.07;99.94;95735.09;10449073;28;2155;-79
2021/06/24 17:49:57;;;;;;;;;;;18.20;99.90;;;17.03;100.00;95740.34;10465015;28;2201;-82
2021/06/24 17:55:00;;;;;;;;;;;18.10;99.90;;;16.81;96.78;95717.94;10480830;28;2014;-78
2021/06/24 18:00:02;;;;;;;;;;;18.00;99.90;;;16.66;97.35;95711.78;10462742;28;2216;-82
2021/06/24 18:05:05;;;;;;;;;;;17.80;99.90;;;16.68;94.77;95734.00;10477221;28;2123;-83
2021/06/24 18:10:08;;;;;;;;;;;17.70;99.90;;;16.51;98.35;95743.97;10493534;28;2112;-80
2021/06/24 18:15:11;;;;;;;;;;;17.60;99.90;;;16.60;100.00;95753.72;10474588;28;2040;-81
2021/06/24 18:20:15;;;;;;;;;;;17.50;99.90;;;16.58;100.00;95734.25;10442881;28;2136;-82
2021/06/24 18:25:18;;;;;;;;;;;17.50;99.90;;;16.55;100.00;95734.91;10481313;28;2036;-82
2021/06/24 18:30:21;;;;;;;;;;;17.40;99.90;;;16.58;100.00;95777.69;10481114;28;2218;-80
2021/06/24 18:35:24;;;;;;;;;;;17.50;99.90;;;16.60;100.00;95785.50;10476865;28;2112;-82
2021/06/24 18:40:27;;;;;;;;;;;17.50;99.90;;;16.50;100.00;95792.00;10452170;28;2076;-82
2021/06/24 18:45:30;;;;;;;;;;;17.40;99.90;;;16.39;100.00;95786.03;10445703;28;2045;-82
2021/06/24 18:50:34;;;;;;;;;;;17.30;99.90;;;16.32;100.00;95803.84;10467632;28;2156;-81
2021/06/24 18:55:43;;;;;;;;;;;17.20;99.90;;;16.33;100.00;95819.00;10463806;28;2049;-82
2021/06/24 19:00:45;;;;;;;;;;;17.20;99.90;;;16.38;100.00;95832.47;10466727;28;2120;-81
2021/06/24 19:05:48;;;;;;;;;;;17.20;99.90;;;16.42;100.00;95845.09;10451639;28;1896;-83
2021/06/24 19:10:51;;;;;;;;;;;17.30;99.90;;;16.38;100.00;95837.88;10467580;28;1809;-81
2021/06/24 19:15:54;;;;;;;;;;;17.20;99.90;;;16.27;100.00;95872.59;10445704;28;1883;-84
2021/06/24 19:20:57;;;;;;;;;;;17.20;99.90;;;16.15;100.00;95877.75;10449459;28;2134;-83
2021/06/24 19:26:00;;;;;;;;;;;17.10;99.90;;;16.03;100.00;95872.88;10437675;28;2100;-82
2021/06/24 19:31:03;;;;;;;;;;;17.00;99.90;;;15.84;100.00;95900.13;10434702;28;1711;-82
2021/06/24 19:36:06;;;;;;;;;;;16.80;99.90;;;15.91;100.00;95934.97;10449092;28;2083;-81
2021/06/24 19:41:09;;;;;;;;;;;16.80;99.90;;;15.78;100.00;95930.34;10445411;28;2058;-82
2021/06/24 19:46:11;;;;;;;;;;;16.80;99.90;;;15.84;100.00;95923.69;10458595;28;2189;-83
2021/06/24 19:51:14;;;;;;;;;;;16.70;99.90;;;16.12;100.00;95909.00;10462473;28;2100;-81
2021/06/24 19:56:17;;;;;;;;;;;16.80;99.90;;;16.07;100.00;95924.56;10463393;28;2045;-81
2021/06/24 20:01:20;;;;;;;;;;;17.00;99.90;;;16.07;100.00;95921.88;10464793;28;2253;-79
2021/06/24 20:06:23;;;;;;;;;;;16.90;99.90;;;16.19;100.00;95922.94;10445981;28;2164;-79
2021/06/24 20:11:25;;;;;;;;;;;17.00;99.90;;;16.34;100.00;95931.84;10443842;28;2052;-82
2021/06/24 20:16:28;;;;;;;;;;;17.10;99.90;;;16.43;100.00;95936.25;10463847;28;2238;-82
2021/06/24 20:21:31;;;;;;;;;;;17.20;99.90;;;16.67;100.00;95948.72;10446576;28;2142;-82
2021/06/24 20:26:34;;;;;;;;;;;17.40;99.90;;;16.71;100.00;95941.59;10444498;28;2250;-82
2021/06/24 20:31:37;;;;;;;;;;;17.50;99.90;;;16.64;100.00;95943.91;10472325;28;2182;-82
2021/06/24 20:36:39;;;;;;;;;;;17.50;99.90;;;16.49;100.00;95947.78;10462573;28;2290;-80
2021/06/24 20:41:42;;;;;;;;;;;17.40;99.90;;;16.61;100.00;95953.47;10461105;28;2134;-78
2021/06/24 20:46:45;;;;;;;;;;;17.40;99.90;;;16.65;100.00;95940.88;10472120;28;2213;-79
2021/06/24 20:51:48;;;;;;;;;;;17.40;99.90;;;16.59;100.00;95925.81;10461965;28;1960;-80
2021/06/24 20:56:51;;;;;;;;;;;17.40;99.90;;;16.65;100.00;95927.28;10456827;28;2096;-79
2021/06/24 21:01:53;;;;;;;;;;;17.40;99.90;;;16.48;100.00;95922.56;10456949;28;1936;-81
2021/06/24 21:06:56;;;;;;;;;;;17.30;99.90;;;16.40;100.00;95920.56;10461016;28;1928;-82
2021/06/24 21:11:59;;;;;;;;;;;17.30;99.90;;;16.22;100.00;95916.09;10439687;28;2116;-81
2021/06/24 21:17:02;;;;;;;;;;;17.10;99.90;;;16.03;100.00;95913.56;10472379;28;2033;-81
2021/06/24 21:22:05;;;;;;;;;;;17.00;99.90;;;16.00;100.00;95919.56;10450243;28;2043;-80
2021/06/24 21:27:07;;;;;;;;;;;16.80;99.90;;;16.23;100.00;95928.56;10468072;28;2116;-81
2021/06/24 21:32:10;;;;;;;;;;;16.90;99.90;;;15.90;100.00;95927.91;10466461;28;2023;-81
2021/06/24 21:37:14;;;;;;;;;;;16.80;99.90;;;15.81;100.00;95927.03;10428811;28;2086;-80
2021/06/24 21:42:17;;;;;;;;;;;16.60;99.90;;;15.40;100.00;95925.91;10446795;28;2117;-80
2021/06/24 21:47:19;;;;;;;;;;;16.40;99.90;;;14.90;100.00;95938.47;10425289;28;1983;-81
2021/06/24 21:52:22;;;;;;;;;;;16.00;99.90;;;14.78;100.00;95957.06;10450036;28;2014;-81
2021/06/24 21:57:25;;;;;;;;;;;15.80;99.90;;;14.65;100.00;95977.56;10452810;28;1920;-80
2021/06/24 22:02:28;;;;;;;;;;;15.60;99.90;;;14.81;100.00;95986.22;10463197;28;1776;-81
2021/06/24 22:07:30;;;;;;;;;;;15.50;99.90;;;14.62;100.00;95991.66;10454355;28;2058;-78
2021/06/24 22:12:33;;;;;;;;;;;15.50;99.90;;;14.47;100.00;95986.50;10445878;28;2068;-79
2021/06/24 22:17:36;;;;;;;;;;;15.40;99.90;;;14.19;100.00;95988.22;10442026;28;1279;-81
2021/06/24 22:22:38;;;;;;;;;;;15.20;99.90;;;14.30;100.00;95973.44;10460648;28;2060;-81
2021/06/24 22:27:41;;;;;;;;;;;15.10;99.90;;;14.29;100.00;95982.66;10451075;28;2008;-79
2021/06/24 22:32:44;;;;;;;;;;;15.20;99.90;;;14.33;100.00;95980.97;10460837;28;2162;-81
2021/06/24 22:37:47;;;;;;;;;;;15.20;99.90;;;14.30;100.00;95981.56;10429741;28;2084;-81
2021/06/24 22:42:49;;;;;;;;;;;15.20;99.90;;;14.28;100.00;95983.75;10451937;28;2113;-81
2021/06/24 22:47:52;;;;;;;;;;;15.20;99.90;;;14.43;100.00;95997.03;10450687;28;2139;-80
2021/06/24 22:52:55;;;;;;;;;;;15.20;99.90;;;14.47;100.00;96000.00;10457268;28;2134;-80
2021/06/24 22:57:57;;;;;;;;;;;15.40;99.90;;;14.80;100.00;95992.75;10439355;28;2205;-80
2021/06/24 23:03:00;;;;;;;;;;;15.40;99.90;;;14.95;100.00;96003.34;10448770;28;2226;-79
2021/06/24 23:08:03;;;;;;;;;;;15.60;99.90;;;15.10;100.00;95994.97;10457728;28;2083;-79
2021/06/24 23:13:06;;;;;;;;;;;15.80;99.90;;;15.24;100.00;95986.06;10468470;28;2205;-81